Sint-Katelijne-Waver, Belgium
Current Conditions -  °F | °C
As of 12:50 AM on Sunday 23 Nov 2014 (Local Time) from EBAW Reporting Station
Clear Clear  
Wind Chill: 10°   Ceiling: Unl
Heat Index: 10°   Visibility: 6mi
Dew Point:   Wind: 5mph
Humidity: 87%   Direction: 170°S
Pressure: 30.06"   Gusts: NA
Location:  51.07°N, 4.53°E
Report Text: EBAW 222350Z AUTO 17004KT CAVOK 10/08 Q1018
Loading
Personal Weather Stations






























Interactive Weather Map New forecast layout! Learn more

10-Day Weather Forecast

Advertisements
Track Severe Weather on mobile